createdAt,value
2023-03-19T00:03:13.567Z,28.50
2023-03-19T00:09:15.546Z,28.20
2023-03-19T00:15:17.310Z,28.00
2023-03-19T00:21:19.075Z,28.00
2023-03-19T00:27:20.928Z,27.90
2023-03-19T00:33:22.513Z,27.90
2023-03-19T00:39:24.091Z,27.10
2023-03-19T00:45:25.701Z,27.50
2023-03-19T00:51:27.211Z,26.80
2023-03-19T00:57:29.709Z,27.50
2023-03-19T01:03:31.309Z,26.80
2023-03-19T01:09:32.935Z,26.80
2023-03-19T01:15:42.145Z,26.20
2023-03-19T01:21:45.618Z,26.50
2023-03-19T01:27:50.717Z,26.20
2023-03-19T01:33:52.210Z,26.50
2023-03-19T01:40:15.445Z,25.70
2023-03-19T01:46:36.313Z,25.00
2023-03-19T01:52:57.222Z,24.30
2023-03-19T01:59:12.086Z,22.50
2023-03-19T02:05:28.979Z,22.30
2023-03-19T02:11:34.836Z,24.30
2023-03-19T02:17:38.923Z,23.00
2023-03-19T02:24:07.142Z,24.40
2023-03-19T02:30:35.515Z,24.90
2023-03-19T02:36:45.394Z,22.80
2023-03-19T02:42:46.936Z,23.40
2023-03-19T02:48:54.485Z,21.40
2023-03-19T02:54:56.085Z,21.90
2023-03-19T03:00:59.554Z,24.70
2023-03-19T03:07:01.736Z,25.10
2023-03-19T03:13:04.919Z,24.70
2023-03-19T03:19:06.549Z,25.40
2023-03-19T03:25:11.805Z,26.40
2023-03-19T03:31:13.793Z,24.50
2023-03-19T03:37:16.586Z,27.60
2023-03-19T03:43:20.171Z,26.60
2023-03-19T03:49:22.540Z,25.30
2023-03-19T03:55:27.592Z,25.30
2023-03-19T04:01:34.656Z,26.70
2023-03-19T04:07:39.696Z,24.70
2023-03-19T04:13:44.014Z,24.90
2023-03-19T04:19:45.484Z,24.20
2023-03-19T04:25:57.892Z,23.00
2023-03-19T04:32:05.601Z,22.50
2023-03-19T04:38:08.307Z,22.10
2023-03-19T04:44:12.991Z,22.10
2023-03-19T04:50:15.607Z,21.70
2023-03-19T04:56:18.130Z,22.30
2023-03-19T05:02:21.322Z,24.90
2023-03-19T05:08:24.876Z,25.20
2023-03-19T05:14:26.424Z,25.20
2023-03-19T05:20:38.071Z,23.80
2023-03-19T05:26:43.053Z,23.60
2023-03-19T05:33:00.026Z,24.30
2023-03-19T05:39:14.587Z,23.90
2023-03-19T05:45:18.918Z,25.70
2023-03-19T05:57:26.740Z,21.90
2023-03-19T06:03:34.633Z,24.30
2023-03-19T06:09:41.258Z,22.30
2023-03-19T06:15:42.872Z,24.20
2023-03-19T06:21:44.602Z,23.00
2023-03-19T06:27:46.250Z,23.60
2023-03-19T06:33:55.832Z,27.10
2023-03-19T06:39:59.914Z,31.90
2023-03-19T06:46:04.263Z,30.70
2023-03-19T06:52:06.343Z,30.30
2023-03-19T06:58:08.010Z,28.80
2023-03-19T07:04:10.701Z,30.10
2023-03-19T07:10:13.138Z,25.10
2023-03-19T07:16:15.593Z,29.40
2023-03-19T07:22:17.635Z,26.20
2023-03-19T07:28:20.062Z,27.30
2023-03-19T07:34:22.484Z,26.10
2023-03-19T07:40:25.206Z,23.50
2023-03-19T07:46:27.682Z,22.20
2023-03-19T07:52:29.601Z,21.40
2023-03-19T07:58:31.122Z,22.00
2023-03-19T08:04:33.155Z,22.60
2023-03-19T08:10:37.457Z,21.60
2023-03-19T08:16:40.103Z,20.80
2023-03-19T08:22:42.429Z,19.60
2023-03-19T08:28:44.519Z,18.50
2023-03-19T08:34:49.013Z,16.90
2023-03-19T08:40:50.999Z,16.30
2023-03-19T08:46:52.680Z,13.20
2023-03-19T08:52:55.342Z,12.80
2023-03-19T08:58:57.337Z,12.50
2023-03-19T09:04:59.346Z,11.10
2023-03-19T09:11:01.433Z,11.30
2023-03-19T09:17:04.111Z,10.10
2023-03-19T09:23:05.872Z,10.80
2023-03-19T09:29:08.604Z,10.20
2023-03-19T09:35:10.223Z,8.60
2023-03-19T09:41:22.341Z,8.20
2023-03-19T09:47:28.231Z,6.90
2023-03-19T09:53:39.151Z,6.80
2023-03-19T09:59:40.762Z,6.00
2023-03-19T10:06:20.540Z,6.60
2023-03-19T10:12:26.144Z,6.50
2023-03-19T10:18:35.502Z,6.00
2023-03-19T10:24:40.077Z,6.20
2023-03-19T10:30:44.580Z,5.40
2023-03-19T10:36:46.301Z,7.60
2023-03-19T10:43:14.412Z,6.60
2023-03-19T10:49:16.241Z,6.70
2023-03-19T10:55:23.788Z,6.20
2023-03-19T11:01:35.770Z,8.90
2023-03-19T11:07:37.741Z,8.40
2023-03-19T11:13:39.514Z,7.20
2023-03-19T11:19:42.443Z,7.70
2023-03-19T11:25:55.342Z,7.20
2023-03-19T11:32:25.835Z,8.00
2023-03-19T11:38:35.692Z,7.60
2023-03-19T11:45:02.383Z,7.60
2023-03-19T11:51:16.663Z,6.40
2023-03-19T11:57:27.824Z,4.20
2023-03-19T12:03:44.646Z,5.30
2023-03-19T12:09:55.272Z,4.00
2023-03-19T12:16:16.417Z,4.70
2023-03-19T12:22:49.952Z,4.30
2023-03-19T12:29:05.961Z,4.00
2023-03-19T12:35:15.741Z,4.30
2023-03-19T12:41:21.524Z,4.70
2023-03-19T12:47:31.918Z,4.10
2023-03-19T12:53:50.080Z,3.90
2023-03-19T13:00:00.138Z,3.90
2023-03-19T13:06:08.594Z,4.10
2023-03-19T13:12:13.314Z,4.20
2023-03-19T13:18:45.687Z,4.60
2023-03-19T13:24:48.304Z,4.00
2023-03-19T13:31:04.587Z,4.10
2023-03-19T13:37:12.574Z,4.00
2023-03-19T13:43:37.398Z,4.90
2023-03-19T13:50:04.536Z,4.90
2023-03-19T13:56:26.562Z,5.00
2023-03-19T14:02:30.734Z,4.80
2023-03-19T14:08:43.001Z,4.30
2023-03-19T14:14:47.281Z,3.90
2023-03-19T14:21:01.505Z,4.30
2023-03-19T14:27:16.708Z,4.10
2023-03-19T14:33:41.268Z,3.90
2023-03-19T14:39:43.554Z,4.40
2023-03-19T14:46:03.416Z,4.60
2023-03-19T14:52:15.146Z,4.10
2023-03-19T14:58:23.592Z,4.00
2023-03-19T15:04:27.993Z,3.70
2023-03-19T15:10:38.085Z,4.10
2023-03-19T15:16:55.486Z,4.00
2023-03-19T15:23:00.563Z,4.20
2023-03-19T15:29:04.426Z,4.00
2023-03-19T15:35:10.419Z,3.60
2023-03-19T15:41:41.297Z,3.90
2023-03-19T15:48:13.592Z,3.40
2023-03-19T15:54:15.700Z,3.40
2023-03-19T16:00:17.954Z,3.50
2023-03-19T16:06:29.716Z,3.60
2023-03-19T16:12:39.179Z,3.50
2023-03-19T16:18:44.902Z,3.80
2023-03-19T16:24:47.617Z,4.40
2023-03-19T16:30:50.140Z,4.00
2023-03-19T16:36:51.990Z,4.30
2023-03-19T16:42:55.401Z,4.50
2023-03-19T16:48:57.112Z,4.30
2023-03-19T16:54:59.412Z,4.10
2023-03-19T17:01:02.426Z,4.30
2023-03-19T17:07:03.950Z,3.90
2023-03-19T17:13:07.408Z,4.90
2023-03-19T17:19:15.537Z,4.70
2023-03-19T17:25:20.228Z,4.60
2023-03-19T17:31:30.590Z,4.20
2023-03-19T17:37:32.295Z,4.30
2023-03-19T17:43:33.970Z,4.70
2023-03-19T17:49:35.500Z,4.50
2023-03-19T17:55:37.029Z,4.70
2023-03-19T18:01:42.390Z,4.90
2023-03-19T18:07:46.988Z,4.70
2023-03-19T18:13:48.817Z,4.40
2023-03-19T18:19:51.752Z,4.70
2023-03-19T18:25:53.516Z,5.10
2023-03-19T18:32:03.327Z,5.00
2023-03-19T18:38:35.217Z,5.50
2023-03-19T18:45:29.145Z,5.70
2023-03-19T18:52:00.678Z,5.90
2023-03-19T18:58:04.031Z,5.90
2023-03-19T19:04:06.395Z,7.20
2023-03-19T19:10:11.092Z,8.90
2023-03-19T19:16:20.498Z,10.90
2023-03-19T19:22:22.557Z,12.90
2023-03-19T19:28:27.263Z,9.80
2023-03-19T19:34:29.304Z,7.50
2023-03-19T19:40:31.148Z,8.00
2023-03-19T19:46:34.103Z,8.50
2023-03-19T19:52:37.041Z,7.60
2023-03-19T19:58:40.187Z,6.90
2023-03-19T20:04:41.790Z,7.00
2023-03-19T20:10:43.831Z,9.50
2023-03-19T20:16:46.640Z,7.40
2023-03-19T20:22:49.386Z,8.10
2023-03-19T20:28:51.695Z,7.60
2023-03-19T20:34:54.513Z,9.10
2023-03-19T20:40:56.966Z,9.70
2023-03-19T20:46:58.530Z,9.00
2023-03-19T20:53:03.021Z,9.00
2023-03-19T21:00:22.416Z,8.80
2023-03-19T21:07:53.187Z,8.70
2023-03-19T21:13:55.052Z,7.90
2023-03-19T21:19:56.882Z,8.40
2023-03-19T21:25:59.956Z,7.90
2023-03-19T21:32:01.559Z,8.70
2023-03-19T21:38:03.101Z,9.70
2023-03-19T21:44:13.601Z,8.70
2023-03-19T21:50:17.600Z,9.20
2023-03-19T21:56:34.767Z,9.90
2023-03-19T22:02:43.464Z,9.80
2023-03-19T22:08:47.473Z,9.10
2023-03-19T22:14:51.485Z,10.40
2023-03-19T22:20:53.941Z,11.50
2023-03-19T22:27:01.135Z,11.60
2023-03-19T22:33:14.053Z,10.70
2023-03-19T22:39:18.060Z,10.20
2023-03-19T22:45:29.806Z,9.90
2023-03-19T22:51:31.555Z,14.40
2023-03-19T22:57:33.120Z,11.10
2023-03-19T23:03:35.054Z,12.70
2023-03-19T23:09:37.162Z,13.80
2023-03-19T23:15:39.193Z,13.60
2023-03-19T23:21:41.150Z,12.40
2023-03-19T23:27:43.368Z,12.30
2023-03-19T23:33:48.025Z,13.20
2023-03-19T23:39:49.462Z,15.10
2023-03-19T23:45:51.779Z,17.80
2023-03-19T23:51:53.381Z,18.70
2023-03-19T23:57:55.994Z,18.80
